createdAt,value
2023-04-19T00:02:09.034Z,7.00
2023-04-19T00:04:39.540Z,6.15
2023-04-19T00:07:07.878Z,6.15
2023-04-19T00:09:36.056Z,6.68
2023-04-19T00:12:04.474Z,6.38
2023-04-19T00:14:32.772Z,7.20
2023-04-19T00:17:01.001Z,6.68
2023-04-19T00:19:29.482Z,7.00
2023-04-19T00:21:59.122Z,6.15
2023-04-19T00:24:27.373Z,7.38
2023-04-19T00:26:55.662Z,5.82
2023-04-19T00:29:23.971Z,7.20
2023-04-19T00:31:53.193Z,6.85
2023-04-19T00:34:21.671Z,7.40
2023-04-19T00:36:49.820Z,6.40
2023-04-19T00:39:19.599Z,6.32
2023-04-19T00:41:47.843Z,6.40
2023-04-19T00:44:16.242Z,6.45
2023-04-19T00:46:45.548Z,6.45
2023-04-19T00:49:14.146Z,6.20
2023-04-19T00:51:42.606Z,7.18
2023-04-19T00:54:11.170Z,6.88
2023-04-19T00:56:41.571Z,6.30
2023-04-19T01:01:39.556Z,5.93
2023-04-19T01:04:11.476Z,6.93
2023-04-19T01:06:41.576Z,7.30
2023-04-19T01:09:09.855Z,7.63
2023-04-19T01:11:38.183Z,6.50
2023-04-19T01:14:07.759Z,7.00
2023-04-19T01:16:36.413Z,7.47
2023-04-19T01:19:04.652Z,6.88
2023-04-19T01:21:33.257Z,6.20
2023-04-19T01:24:02.770Z,7.80
2023-04-19T01:26:31.004Z,8.27
2023-04-19T01:28:59.216Z,7.03
2023-04-19T01:31:27.601Z,6.88
2023-04-19T01:33:56.073Z,7.40
2023-04-19T01:36:24.323Z,7.60
2023-04-19T01:38:52.529Z,7.90
2023-04-19T01:41:23.072Z,6.60
2023-04-19T01:43:51.249Z,8.25
2023-04-19T01:46:19.594Z,6.70
2023-04-19T01:48:47.826Z,7.50
2023-04-19T01:51:17.498Z,8.48
2023-04-19T01:53:45.685Z,7.18
2023-04-19T01:56:13.921Z,7.45
2023-04-19T01:58:43.808Z,6.82
2023-04-19T02:01:13.269Z,7.95
2023-04-19T02:03:42.218Z,7.65
2023-04-19T02:06:13.020Z,6.70
2023-04-19T02:08:41.683Z,6.87
2023-04-19T02:11:10.564Z,6.80
2023-04-19T02:13:38.916Z,6.50
2023-04-19T02:16:09.394Z,8.02
2023-04-19T02:18:38.554Z,7.53
2023-04-19T02:21:07.730Z,8.50
2023-04-19T02:23:36.231Z,7.38
2023-04-19T02:26:04.503Z,7.50
2023-04-19T02:28:33.394Z,8.27
2023-04-19T02:31:06.342Z,7.47
2023-04-19T02:33:36.583Z,7.53
2023-04-19T02:36:05.132Z,8.57
2023-04-19T02:38:33.560Z,9.27
2023-04-19T02:41:04.434Z,7.40
2023-04-19T02:46:01.370Z,10.23
2023-04-19T02:48:29.621Z,9.40
2023-04-19T02:50:59.758Z,8.82
2023-04-19T02:53:28.619Z,9.70
2023-04-19T02:55:56.764Z,9.48
2023-04-19T02:58:25.053Z,10.05
2023-04-19T03:00:53.250Z,11.05
2023-04-19T03:03:21.757Z,10.88
2023-04-19T03:05:49.939Z,10.13
2023-04-19T03:08:19.536Z,9.82
2023-04-19T03:10:47.765Z,11.02
2023-04-19T03:13:15.951Z,11.52
2023-04-19T03:15:44.302Z,9.80
2023-04-19T03:18:12.456Z,11.93
2023-04-19T03:20:40.727Z,10.88
2023-04-19T03:23:09.082Z,12.13
2023-04-19T03:25:38.865Z,11.90
2023-04-19T03:28:07.000Z,11.60
2023-04-19T03:30:35.401Z,11.25
2023-04-19T03:33:03.646Z,11.23
2023-04-19T03:35:32.628Z,11.23
2023-04-19T03:38:01.530Z,10.48
2023-04-19T03:40:29.815Z,11.13
2023-04-19T03:42:59.523Z,11.60
2023-04-19T03:45:27.725Z,10.60
2023-04-19T03:47:55.920Z,12.48
2023-04-19T03:50:24.465Z,11.10
2023-04-19T03:52:52.618Z,9.85
2023-04-19T03:55:20.895Z,10.60
2023-04-19T03:57:49.052Z,10.15
2023-04-19T04:00:19.353Z,9.73
2023-04-19T04:02:47.875Z,11.35
2023-04-19T04:05:16.864Z,12.20
2023-04-19T04:07:45.165Z,11.40
2023-04-19T04:12:44.569Z,11.38
2023-04-19T04:15:13.073Z,12.98
2023-04-19T04:17:42.745Z,12.63
2023-04-19T04:20:13.606Z,13.05
2023-04-19T04:22:44.261Z,12.07
2023-04-19T04:25:16.983Z,12.68
2023-04-19T04:27:45.304Z,12.60
2023-04-19T04:30:14.078Z,13.18
2023-04-19T04:32:45.096Z,13.20
2023-04-19T04:35:13.326Z,13.45
2023-04-19T04:37:41.602Z,12.23
2023-04-19T04:40:16.590Z,14.00
2023-04-19T04:42:45.648Z,14.57
2023-04-19T04:45:13.880Z,13.20
2023-04-19T04:47:43.593Z,13.02
2023-04-19T04:50:12.735Z,14.07
2023-04-19T04:52:40.947Z,12.32
2023-04-19T04:55:12.119Z,12.50
2023-04-19T04:57:40.402Z,14.40
2023-04-19T05:00:10.881Z,12.68
2023-04-19T05:02:39.222Z,11.88
2023-04-19T05:05:15.610Z,14.07
2023-04-19T05:07:44.127Z,15.57
2023-04-19T05:10:12.484Z,13.07
2023-04-19T05:12:40.775Z,11.73
2023-04-19T05:15:13.184Z,11.07
2023-04-19T05:17:43.202Z,10.65
2023-04-19T05:22:42.506Z,10.43
2023-04-19T05:25:12.056Z,12.38
2023-04-19T05:27:40.219Z,10.90
2023-04-19T05:30:09.343Z,11.40
2023-04-19T05:32:37.607Z,10.98
2023-04-19T05:35:06.265Z,9.73
2023-04-19T05:37:34.517Z,9.70
2023-04-19T05:40:05.990Z,12.05
2023-04-19T05:42:35.270Z,11.73
2023-04-19T05:45:05.851Z,10.93
2023-04-19T05:47:35.542Z,10.52
2023-04-19T05:50:03.941Z,11.02
2023-04-19T05:52:32.076Z,10.80
2023-04-19T05:55:00.653Z,10.65
2023-04-19T05:57:31.906Z,11.15
2023-04-19T06:02:34.034Z,11.13
2023-04-19T06:05:09.854Z,11.98
2023-04-19T06:07:43.180Z,9.75
2023-04-19T06:10:18.879Z,9.82
2023-04-19T06:12:48.697Z,11.05
2023-04-19T06:15:16.856Z,8.65
2023-04-19T06:17:45.260Z,9.82
2023-04-19T06:20:14.286Z,9.07
2023-04-19T06:22:46.990Z,9.88
2023-04-19T06:25:15.213Z,10.80
2023-04-19T06:27:43.506Z,8.85
2023-04-19T06:30:13.944Z,12.35
2023-04-19T06:32:42.268Z,9.18
2023-04-19T06:35:11.068Z,9.55
2023-04-19T06:37:39.490Z,10.38
2023-04-19T06:40:09.611Z,9.45
2023-04-19T06:42:37.892Z,9.50
2023-04-19T06:45:07.265Z,11.32
2023-04-19T06:47:36.962Z,9.55
2023-04-19T06:50:06.021Z,9.85
2023-04-19T06:52:34.287Z,7.47
2023-04-19T06:55:02.402Z,10.90
2023-04-19T06:57:34.400Z,9.15
2023-04-19T07:00:02.747Z,8.40
2023-04-19T07:02:31.097Z,10.35
2023-04-19T07:05:01.093Z,9.43
2023-04-19T07:07:29.967Z,8.73
2023-04-19T07:09:58.064Z,10.45
2023-04-19T07:12:26.293Z,9.25
2023-04-19T07:14:57.371Z,9.05
2023-04-19T07:17:25.817Z,9.02
2023-04-19T07:19:54.052Z,11.32
2023-04-19T07:22:23.789Z,10.45
2023-04-19T07:24:52.361Z,11.43
2023-04-19T07:27:20.634Z,9.15
2023-04-19T07:29:48.914Z,9.00
2023-04-19T07:32:17.121Z,7.85
2023-04-19T07:34:46.322Z,7.65
2023-04-19T07:37:14.678Z,8.95
2023-04-19T07:39:44.676Z,9.05
2023-04-19T07:42:12.798Z,8.55
2023-04-19T07:44:41.066Z,7.22
2023-04-19T07:47:09.228Z,9.02
2023-04-19T07:49:37.915Z,9.98
2023-04-19T07:52:08.958Z,8.20
2023-04-19T07:54:39.287Z,8.45
2023-04-19T07:57:09.098Z,8.48
2023-04-19T07:59:37.275Z,9.52
2023-04-19T08:02:05.805Z,8.32
2023-04-19T08:04:34.796Z,8.93
2023-04-19T08:07:04.303Z,9.48
2023-04-19T08:09:34.623Z,10.82
2023-04-19T08:12:02.721Z,9.02
2023-04-19T08:14:43.835Z,8.35
2023-04-19T08:19:49.534Z,9.10
2023-04-19T08:22:18.328Z,9.25
2023-04-19T08:24:46.551Z,8.68
2023-04-19T08:27:14.808Z,11.30
2023-04-19T08:29:44.522Z,11.25
2023-04-19T08:32:12.988Z,11.38
2023-04-19T08:34:41.498Z,10.88
2023-04-19T08:37:09.563Z,10.50
2023-04-19T08:39:39.035Z,10.15
2023-04-19T08:42:18.241Z,10.57
2023-04-19T08:45:25.411Z,12.27
2023-04-19T08:47:59.988Z,10.13
2023-04-19T08:53:15.720Z,11.48
2023-04-19T08:56:08.572Z,10.82
2023-04-19T08:58:57.722Z,11.68
2023-04-19T09:01:34.896Z,11.38
2023-04-19T09:04:26.446Z,11.18
2023-04-19T09:06:54.201Z,10.77
2023-04-19T09:09:35.433Z,10.65
2023-04-19T09:12:18.156Z,11.98
2023-04-19T09:17:21.117Z,11.55
2023-04-19T09:19:50.543Z,12.43
2023-04-19T09:22:18.958Z,9.95
2023-04-19T09:27:27.705Z,10.77
2023-04-19T09:29:56.450Z,11.05
2023-04-19T09:32:27.226Z,9.70
2023-04-19T09:34:59.826Z,12.13
2023-04-19T09:39:59.905Z,10.80
2023-04-19T09:43:06.930Z,11.93
2023-04-19T09:45:44.141Z,10.82
2023-04-19T09:48:14.688Z,12.13
2023-04-19T09:50:58.975Z,12.02
2023-04-19T09:53:30.578Z,10.75
2023-04-19T09:56:02.120Z,12.07
2023-04-19T10:01:14.092Z,11.95
2023-04-19T10:03:47.126Z,11.55
2023-04-19T10:08:51.702Z,11.70
2023-04-19T10:11:23.004Z,9.70
2023-04-19T10:18:54.204Z,11.52
2023-04-19T10:21:23.308Z,13.95
2023-04-19T10:23:51.981Z,11.65
2023-04-19T10:26:20.178Z,12.52
2023-04-19T10:28:51.654Z,12.30
2023-04-19T10:31:23.851Z,12.10
2023-04-19T10:33:53.932Z,12.10
2023-04-19T10:36:23.526Z,11.82
2023-04-19T10:38:53.732Z,11.23
2023-04-19T10:41:22.952Z,9.55
2023-04-19T10:44:13.049Z,11.65
2023-04-19T10:46:41.980Z,10.82
2023-04-19T10:49:13.605Z,11.02
2023-04-19T10:51:44.435Z,12.52
2023-04-19T10:54:31.660Z,13.98
2023-04-19T10:57:05.233Z,13.18
2023-04-19T10:59:35.399Z,15.40
2023-04-19T11:02:05.390Z,14.50
2023-04-19T11:05:04.323Z,13.07
2023-04-19T11:07:43.090Z,12.60
2023-04-19T11:10:12.764Z,14.48
2023-04-19T11:12:45.228Z,11.65
2023-04-19T11:15:13.510Z,13.80
2023-04-19T11:17:42.830Z,15.18
2023-04-19T11:20:14.753Z,13.57
2023-04-19T11:22:46.450Z,14.77
2023-04-19T11:25:18.299Z,15.63
2023-04-19T11:27:48.295Z,14.60
2023-04-19T11:30:19.761Z,14.80
2023-04-19T11:32:49.122Z,15.95
2023-04-19T11:35:21.057Z,14.40
2023-04-19T11:37:49.244Z,14.25
2023-04-19T11:40:18.831Z,15.70
2023-04-19T11:42:47.418Z,14.93
2023-04-19T11:45:31.232Z,15.90
2023-04-19T11:48:01.934Z,14.10
2023-04-19T11:50:36.299Z,13.70
2023-04-19T11:53:26.730Z,14.27
2023-04-19T11:55:57.601Z,16.40
2023-04-19T11:58:29.627Z,14.85
2023-04-19T12:01:00.401Z,15.75
2023-04-19T12:03:28.716Z,13.93
2023-04-19T12:06:03.619Z,13.88
2023-04-19T12:08:33.688Z,14.77
2023-04-19T12:11:03.610Z,14.30
2023-04-19T12:13:32.545Z,14.32
2023-04-19T12:16:01.761Z,13.05
2023-04-19T12:18:43.366Z,15.40
2023-04-19T12:21:14.162Z,14.30
2023-04-19T12:23:42.381Z,15.02
2023-04-19T12:26:11.694Z,15.82
2023-04-19T12:28:40.023Z,15.52
2023-04-19T12:31:08.163Z,15.80
2023-04-19T12:33:36.629Z,14.07
2023-04-19T12:36:05.091Z,16.13
2023-04-19T12:38:34.666Z,15.65
2023-04-19T12:41:03.118Z,15.45
2023-04-19T12:43:32.082Z,16.25
2023-04-19T12:46:00.594Z,14.27
2023-04-19T12:48:32.582Z,15.00
2023-04-19T12:51:01.340Z,13.65
2023-04-19T12:53:29.975Z,13.45
2023-04-19T12:56:00.137Z,13.65
2023-04-19T12:58:28.420Z,15.45
2023-04-19T13:00:56.615Z,15.05
2023-04-19T13:03:25.060Z,14.63
2023-04-19T13:05:53.427Z,15.32
2023-04-19T13:08:33.824Z,13.05
2023-04-19T13:11:11.010Z,14.23
2023-04-19T13:13:39.177Z,13.60
2023-04-19T13:16:08.275Z,12.60
2023-04-19T13:18:36.702Z,13.90
2023-04-19T13:21:07.325Z,14.68
2023-04-19T13:26:04.698Z,14.68
2023-04-19T13:28:36.822Z,13.25
2023-04-19T13:31:06.004Z,13.43
2023-04-19T13:33:34.379Z,15.00
2023-04-19T13:36:02.599Z,16.05
2023-04-19T13:38:30.940Z,15.65
2023-04-19T13:40:59.094Z,12.77
2023-04-19T13:43:27.229Z,15.80
2023-04-19T13:45:56.888Z,13.40
2023-04-19T13:48:27.515Z,13.25
2023-04-19T13:50:56.172Z,13.75
2023-04-19T13:53:25.313Z,14.43
2023-04-19T13:55:53.573Z,14.90
2023-04-19T13:58:21.856Z,14.63
2023-04-19T14:00:50.030Z,15.23
2023-04-19T14:03:19.699Z,15.68
2023-04-19T14:05:47.993Z,16.38
2023-04-19T14:08:16.507Z,16.42
2023-04-19T14:10:44.711Z,14.93
2023-04-19T14:13:12.937Z,14.50
2023-04-19T14:15:42.106Z,15.60
2023-04-19T14:20:42.312Z,15.80
2023-04-19T14:23:10.448Z,16.80
2023-04-19T14:25:38.665Z,17.45
2023-04-19T14:28:06.969Z,17.33
2023-04-19T14:30:35.320Z,15.88
2023-04-19T14:33:03.500Z,15.40
2023-04-19T14:35:31.830Z,17.88
2023-04-19T14:38:01.484Z,17.00
2023-04-19T14:40:30.139Z,18.00
2023-04-19T14:42:58.364Z,16.38
2023-04-19T14:45:27.715Z,16.60
2023-04-19T14:47:56.280Z,18.63
2023-04-19T14:50:24.828Z,17.67
2023-04-19T14:52:54.809Z,18.05
2023-04-19T14:55:25.077Z,17.77
2023-04-19T14:57:53.389Z,19.58
2023-04-19T15:00:21.985Z,19.15
2023-04-19T15:02:50.337Z,18.35
2023-04-19T15:05:19.158Z,18.38
2023-04-19T15:07:47.423Z,18.60
2023-04-19T15:10:15.746Z,18.17
2023-04-19T15:12:45.354Z,18.02
2023-04-19T15:15:13.618Z,19.75
2023-04-19T15:17:42.021Z,18.92
2023-04-19T15:20:11.376Z,18.20
2023-04-19T15:22:39.582Z,18.55
2023-04-19T15:25:08.600Z,19.77
2023-04-19T15:27:36.926Z,17.73
2023-04-19T15:30:07.674Z,20.33
2023-04-19T15:32:38.712Z,18.47
2023-04-19T15:35:07.617Z,18.90
2023-04-19T15:37:35.899Z,18.65
2023-04-19T15:40:04.396Z,18.92
2023-04-19T15:42:32.465Z,16.83
2023-04-19T15:45:00.680Z,19.27
2023-04-19T15:47:31.049Z,17.83
2023-04-19T15:49:59.266Z,19.35
2023-04-19T15:52:27.438Z,17.63
2023-04-19T15:54:55.670Z,17.05
2023-04-19T15:57:23.876Z,18.10
2023-04-19T15:59:52.439Z,17.85
2023-04-19T16:02:21.024Z,18.02
2023-04-19T16:04:51.777Z,18.30
2023-04-19T16:07:20.140Z,18.00
2023-04-19T16:09:48.289Z,17.52
2023-04-19T16:12:16.471Z,18.48
2023-04-19T16:14:44.637Z,17.65
2023-04-19T16:17:12.805Z,17.58
2023-04-19T16:19:40.880Z,16.85
2023-04-19T16:22:10.791Z,17.25
2023-04-19T16:24:38.946Z,16.35
2023-04-19T16:27:07.114Z,19.38
2023-04-19T16:29:35.607Z,16.35
2023-04-19T16:32:04.202Z,16.45
2023-04-19T16:34:32.457Z,16.27
2023-04-19T16:37:01.014Z,16.77
2023-04-19T16:39:30.723Z,18.23
2023-04-19T16:41:58.905Z,17.38
2023-04-19T16:44:27.098Z,17.50
2023-04-19T16:46:55.407Z,17.60
2023-04-19T16:49:23.639Z,19.17
2023-04-19T16:51:51.701Z,17.15
2023-04-19T16:54:20.024Z,17.45
2023-04-19T16:56:51.843Z,16.85
2023-04-19T16:59:20.029Z,16.20
2023-04-19T17:01:48.276Z,15.38
2023-04-19T17:04:16.625Z,14.50
2023-04-19T17:06:45.844Z,13.50
2023-04-19T17:09:14.140Z,13.00
2023-04-19T17:11:42.385Z,12.57
2023-04-19T17:14:12.107Z,13.73
2023-04-19T17:16:41.093Z,13.13
2023-04-19T17:19:09.370Z,12.63
2023-04-19T17:21:37.745Z,13.23
2023-04-19T17:24:10.644Z,10.23
2023-04-19T17:26:39.049Z,11.10
2023-04-19T17:29:07.317Z,10.52
2023-04-19T17:31:37.086Z,10.57
2023-04-19T17:34:05.462Z,11.38
2023-04-19T17:36:33.960Z,10.18
2023-04-19T17:39:02.266Z,9.15
2023-04-19T17:41:30.552Z,10.20
2023-04-19T17:43:58.655Z,10.48
2023-04-19T17:46:26.863Z,9.85
2023-04-19T17:48:56.960Z,8.57
2023-04-19T17:51:25.338Z,8.95
2023-04-19T17:53:53.559Z,9.20
2023-04-19T17:56:21.778Z,9.52
2023-04-19T17:58:49.890Z,9.70
2023-04-19T18:01:18.208Z,9.77
2023-04-19T18:03:46.573Z,9.32
2023-04-19T18:06:16.750Z,8.30
2023-04-19T18:08:46.087Z,8.35
2023-04-19T18:11:15.197Z,8.07
2023-04-19T18:13:43.414Z,9.00
2023-04-19T18:16:11.843Z,7.85
2023-04-19T18:18:40.785Z,7.88
2023-04-19T18:21:09.861Z,8.40
2023-04-19T18:23:39.470Z,8.43
2023-04-19T18:26:07.843Z,7.95
2023-04-19T18:28:37.532Z,9.35
2023-04-19T18:31:06.944Z,10.35
2023-04-19T18:33:35.565Z,8.95
2023-04-19T18:36:03.761Z,9.02
2023-04-19T18:38:32.117Z,7.70
2023-04-19T18:41:01.716Z,7.22
2023-04-19T18:43:30.927Z,7.35
2023-04-19T18:46:00.333Z,6.88
2023-04-19T18:48:29.549Z,7.10
2023-04-19T18:50:59.625Z,8.02
2023-04-19T18:53:29.659Z,7.70
2023-04-19T18:55:58.679Z,6.97
2023-04-19T18:58:29.579Z,7.78
2023-04-19T19:00:58.253Z,6.43
2023-04-19T19:05:58.651Z,6.00
2023-04-19T19:08:27.298Z,6.78
2023-04-19T19:13:28.163Z,5.88
2023-04-19T19:15:56.557Z,4.85
2023-04-19T19:18:25.083Z,6.28
2023-04-19T19:20:53.764Z,4.82
2023-04-19T19:23:35.504Z,4.65
2023-04-19T19:26:07.159Z,4.35
2023-04-19T19:28:36.840Z,4.03
2023-04-19T19:31:05.156Z,3.63
2023-04-19T19:33:33.591Z,3.53
2023-04-19T19:36:01.755Z,3.38
2023-04-19T19:38:31.737Z,4.20
2023-04-19T19:41:37.040Z,3.63
2023-04-19T19:43:49.369Z,3.55
2023-04-19T19:46:17.685Z,3.67
2023-04-19T19:48:51.971Z,3.92
2023-04-19T19:51:52.090Z,3.53
2023-04-19T19:54:10.147Z,3.97
2023-04-19T19:56:49.614Z,4.45
2023-04-19T19:59:29.904Z,4.38
2023-04-19T20:02:02.122Z,4.47
2023-04-19T20:04:31.177Z,4.47
2023-04-19T20:09:30.683Z,5.50
2023-04-19T20:11:59.928Z,4.93
2023-04-19T20:14:29.967Z,7.10
2023-04-19T20:17:01.100Z,4.50
2023-04-19T20:19:29.586Z,5.20
2023-04-19T20:21:59.116Z,3.95
2023-04-19T20:24:27.333Z,3.50
2023-04-19T20:26:55.513Z,3.38
2023-04-19T20:29:23.809Z,3.08
2023-04-19T20:31:53.490Z,5.40
2023-04-19T20:34:21.827Z,3.67
2023-04-19T20:36:50.334Z,3.25
2023-04-19T20:39:19.350Z,4.00
2023-04-19T20:41:48.714Z,3.88
2023-04-19T20:44:18.418Z,3.90
2023-04-19T20:46:47.308Z,3.22
2023-04-19T20:49:17.283Z,4.22
2023-04-19T20:51:46.684Z,4.53
2023-04-19T20:54:14.793Z,3.22
2023-04-19T20:56:43.025Z,3.58
2023-04-19T20:59:11.240Z,3.20
2023-04-19T21:01:39.408Z,4.20
2023-04-19T21:04:08.796Z,3.03
2023-04-19T21:06:38.690Z,4.38
2023-04-19T21:09:06.889Z,3.80
2023-04-19T21:11:35.182Z,3.78
2023-04-19T21:14:03.425Z,3.47
2023-04-19T21:16:31.920Z,3.55
2023-04-19T21:19:01.005Z,5.15
2023-04-19T21:21:30.508Z,3.33
2023-04-19T21:24:01.361Z,4.57
2023-04-19T21:26:29.681Z,5.43
2023-04-19T21:28:57.949Z,3.40
2023-04-19T21:31:26.151Z,4.50
2023-04-19T21:33:54.428Z,4.38
2023-04-19T21:36:22.661Z,4.22
2023-04-19T21:38:50.939Z,4.53
2023-04-19T21:41:20.761Z,4.18
2023-04-19T21:43:49.030Z,3.97
2023-04-19T21:46:17.219Z,3.35
2023-04-19T21:48:45.441Z,3.47
2023-04-19T21:51:14.525Z,3.78
2023-04-19T21:53:42.689Z,3.17
2023-04-19T21:56:10.879Z,3.00
2023-04-19T21:58:40.683Z,3.22
2023-04-19T22:01:08.868Z,3.53
2023-04-19T22:03:37.596Z,3.50
2023-04-19T22:06:06.860Z,3.58
2023-04-19T22:08:35.611Z,2.67
2023-04-19T22:11:03.842Z,3.10
2023-04-19T22:13:33.569Z,3.85
2023-04-19T22:16:03.356Z,3.22
2023-04-19T22:18:34.271Z,3.30
2023-04-19T22:21:02.499Z,3.63
2023-04-19T22:23:30.813Z,3.25
2023-04-19T22:26:00.225Z,3.50
2023-04-19T22:28:28.472Z,3.03
2023-04-19T22:30:56.745Z,3.53
2023-04-19T22:33:26.366Z,3.17
2023-04-19T22:35:54.873Z,3.00
2023-04-19T22:38:23.137Z,3.70
2023-04-19T22:40:51.402Z,2.80
2023-04-19T22:43:19.664Z,3.53
2023-04-19T22:45:48.232Z,4.10
2023-04-19T22:48:17.062Z,3.63
2023-04-19T22:50:48.143Z,3.03
2023-04-19T22:53:16.321Z,3.20
2023-04-19T22:55:44.449Z,3.28
2023-04-19T22:58:12.642Z,2.85
2023-04-19T23:00:41.015Z,2.92
2023-04-19T23:03:09.369Z,2.90
2023-04-19T23:05:37.540Z,3.25
2023-04-19T23:08:07.547Z,4.68
2023-04-19T23:10:38.160Z,3.05
2023-04-19T23:13:06.943Z,3.00
2023-04-19T23:15:35.313Z,3.08
2023-04-19T23:18:04.060Z,2.92
2023-04-19T23:20:32.229Z,3.28
2023-04-19T23:23:00.692Z,3.60
2023-04-19T23:25:30.386Z,2.67
2023-04-19T23:27:58.683Z,3.42
2023-04-19T23:30:27.049Z,3.40
2023-04-19T23:32:55.511Z,3.15
2023-04-19T23:35:24.039Z,3.05
2023-04-19T23:37:52.586Z,2.50
2023-04-19T23:40:22.193Z,3.75
2023-04-19T23:42:51.804Z,2.80
2023-04-19T23:45:19.993Z,3.42
2023-04-19T23:47:48.191Z,2.90
2023-04-19T23:50:16.540Z,2.50
2023-04-19T23:52:44.865Z,4.97
2023-04-19T23:55:13.165Z,2.78
2023-04-19T23:57:41.767Z,3.42
